Time,TemperatureF,DewpointF,PressureIn,WindDirection,WindDirectionDegrees,WindSpeedMPH,WindSpeedGustMPH,Humidity,HourlyPrecipIn,Conditions,Clouds,dailyrainin,SoftwareType,DateUTC
2013-08-04 01:12:00,66.0,56.0,-100.00,WNW,295,1.0,1.0,70,-99.99,,,-99.99,,2013-08-04 08:12:00,
2013-08-04 02:02:00,63.0,55.0,-100.00,NE,35,1.0,2.0,75,-99.99,,,-99.99,,2013-08-04 09:02:00,
2013-08-04 03:12:00,64.0,55.0,-100.00,SW,235,1.0,2.0,72,-99.99,,,-99.99,,2013-08-04 10:12:00,
2013-08-04 04:02:00,63.0,55.0,-100.00,WSW,240,1.0,2.0,75,-99.99,,,-99.99,,2013-08-04 11:02:00,
2013-08-04 05:02:00,60.0,55.0,-100.00,SSW,210,1.0,2.0,83,-99.99,,,-99.99,,2013-08-04 12:02:00,
2013-08-04 05:12:00,60.0,55.0,-100.00,SSW,210,1.0,2.0,83,-99.99,,,-99.99,,2013-08-04 12:12:00,
2013-08-04 06:02:00,60.0,54.0,-100.00,SSW,195,1.0,2.0,80,-99.99,,,-99.99,,2013-08-04 13:02:00,
2013-08-04 06:10:00,59.0,54.0,-100.00,West,280,1.0,3.0,83,-99.99,,,-99.99,,2013-08-04 13:10:00,
2013-08-04 08:02:00,62.0,55.0,-100.00,WSW,240,2.0,3.0,77,-99.99,,,-99.99,,2013-08-04 15:02:00,
2013-08-04 08:10:00,68.0,56.0,-100.00,NNE,20,3.0,6.0,65,-99.99,,,-99.99,,2013-08-04 15:10:00,
2013-08-04 10:10:00,75.0,57.0,-100.00,NE,35,6.0,7.0,53,-99.99,,,-99.99,,2013-08-04 17:10:00,
2013-08-04 11:20:00,80.0,57.0,-100.00,NW,315,6.0,7.0,45,-99.99,,,-99.99,,2013-08-04 18:20:00,
2013-08-04 12:02:00,80.0,57.0,-100.00,NW,315,6.0,7.0,45,-99.99,,,-99.99,,2013-08-04 19:02:00,
2013-08-04 12:10:00,82.0,56.0,-100.00,South,185,6.0,13.0,40,-99.99,,,-99.99,,2013-08-04 19:10:00,
2013-08-04 12:12:00,80.0,57.0,-100.00,NW,315,6.0,7.0,45,-99.99,,,-99.99,,2013-08-04 19:12:00,
2013-08-04 13:02:00,82.0,56.0,-100.00,South,185,6.0,13.0,40,-99.99,,,-99.99,,2013-08-04 20:02:00,
2013-08-04 14:10:00,86.0,53.0,-100.00,WSW,245,6.0,9.0,32,-99.99,,,-99.99,,2013-08-04 21:10:00,
2013-08-04 14:12:00,84.0,55.0,-100.00,South,170,7.0,13.0,37,-99.99,,,-99.99,,2013-08-04 21:12:00,
2013-08-04 16:02:00,85.0,54.0,-100.00,SE,125,3.0,9.0,34,-99.99,,,-99.99,,2013-08-04 23:02:00,
2013-08-04 16:11:00,85.0,54.0,-100.00,SE,125,3.0,9.0,34,-99.99,,,-99.99,,2013-08-04 23:11:00,
2013-08-04 17:02:00,89.0,53.0,-100.00,WNW,290,3.0,7.0,29,-99.99,,,-99.99,,2013-08-05 00:02:00,
2013-08-04 18:02:00,89.0,53.0,-100.00,WSW,245,6.0,9.0,29,-99.99,,,-99.99,,2013-08-05 01:02:00,
2013-08-04 18:12:00,89.0,53.0,-100.00,WSW,245,6.0,9.0,29,-99.99,,,-99.99,,2013-08-05 01:12:00,
2013-08-04 19:02:00,89.0,53.0,-100.00,West,270,5.0,6.0,29,-99.99,,,-99.99,,2013-08-05 02:02:00,
2013-08-04 20:02:00,82.0,63.0,-100.00,NE,45,1.0,5.0,52,-99.99,,,-99.99,,2013-08-05 03:02:00,
2013-08-04 20:12:00,82.0,63.0,-100.00,NE,45,1.0,5.0,52,-99.99,,,-99.99,,2013-08-05 03:12:00,
2013-08-04 21:02:00,76.0,57.0,-100.00,SSE,150,15.0,31.0,51,-99.99,,,-99.99,,2013-08-05 04:02:00,
2013-08-04 22:02:00,67.0,61.0,-100.00,NNE,20,3.0,5.0,81,-99.99,,,-99.99,,2013-08-05 05:02:00,
2013-08-04 22:12:00,67.0,61.0,-100.00,NNE,20,3.0,5.0,81,-99.99,,,-99.99,,2013-08-05 05:12:00,
2013-08-04 23:02:00,68.0,62.0,-100.00,NNE,30,2.0,7.0,81,-99.99,,,-99.99,,2013-08-05 06:02:00,
2013-08-04 23:10:00,67.0,60.0,-100.00,NNE,20,3.0,9.0,78,-99.99,,,-99.99,,2013-08-05 06:10:00,